Time;durP1;ratioP1;P1;durP2;ratioP2;P2;SDS_P1;SDS_P2;PMS_P1;PMS_P2;Temp;Humidity;BMP_temperature;BMP_pressure;BME280_temperature;BME280_humidity;BME280_pressure;Samples;Min_cycle;Max_cycle;Signal;HPM_P1;HPM_P2
2023/04/22 00:02:23;;;;;;;11.15;5.60;;;;;;;;;;5009661;28;20114;-58
2023/04/22 00:04:49;;;;;;;10.82;6.00;;;;;;;;;;5010649;28;20298;-58
2023/04/22 00:07:17;;;;;;;12.07;5.97;;;;;;;;;;5011878;28;20041;-58
2023/04/22 00:09:44;;;;;;;11.68;5.90;;;;;;;;;;5008682;28;20042;-58
2023/04/22 00:12:11;;;;;;;12.48;5.72;;;;;;;;;;5009969;28;20119;-57
2023/04/22 00:14:38;;;;;;;11.30;5.53;;;;;;;;;;5007966;28;20897;-59
2023/04/22 00:17:05;;;;;;;13.95;5.97;;;;;;;;;;5008100;28;20038;-57
2023/04/22 00:19:33;;;;;;;13.15;5.70;;;;;;;;;;5006037;28;20769;-56
2023/04/22 00:22:00;;;;;;;10.02;6.05;;;;;;;;;;5008805;28;20045;-60
2023/04/22 00:24:26;;;;;;;16.00;7.93;;;;;;;;;;5005668;28;20160;-58
2023/04/22 00:26:53;;;;;;;12.80;6.47;;;;;;;;;;5006507;28;20034;-58
2023/04/22 00:29:19;;;;;;;10.68;5.20;;;;;;;;;;5008155;28;20048;-61
2023/04/22 00:31:46;;;;;;;13.05;5.65;;;;;;;;;;5007486;28;20120;-58
2023/04/22 00:34:13;;;;;;;13.80;5.90;;;;;;;;;;5006112;28;20033;-57
2023/04/22 00:36:39;;;;;;;11.38;6.03;;;;;;;;;;5006072;28;20129;-59
2023/04/22 00:39:06;;;;;;;11.88;5.78;;;;;;;;;;5007663;28;20041;-58
2023/04/22 00:41:33;;;;;;;10.32;5.63;;;;;;;;;;5007128;28;20104;-55
2023/04/22 00:44:00;;;;;;;12.27;6.18;;;;;;;;;;5007387;28;20041;-61
2023/04/22 00:46:27;;;;;;;11.30;6.18;;;;;;;;;;5005015;28;20042;-59
2023/04/22 00:48:54;;;;;;;13.95;5.93;;;;;;;;;;5007003;28;20040;-58
2023/04/22 00:51:20;;;;;;;11.40;5.03;;;;;;;;;;5009185;28;20172;-61
2023/04/22 00:53:50;;;;;;;13.35;6.85;;;;;;;;;;5008501;28;20053;-58
2023/04/22 00:56:17;;;;;;;17.13;5.57;;;;;;;;;;5007295;28;20048;-56
2023/04/22 00:58:44;;;;;;;12.60;6.40;;;;;;;;;;5007671;28;20067;-57
2023/04/22 01:01:11;;;;;;;10.15;6.35;;;;;;;;;;5007982;28;20049;-55
2023/04/22 01:03:38;;;;;;;12.38;6.85;;;;;;;;;;5007015;28;20117;-58
2023/04/22 01:06:05;;;;;;;11.68;6.82;;;;;;;;;;5006792;28;20044;-58
2023/04/22 01:08:32;;;;;;;9.75;6.00;;;;;;;;;;5006417;28;20087;-57
2023/04/22 01:10:58;;;;;;;10.85;6.20;;;;;;;;;;5007714;28;20481;-58
2023/04/22 01:13:25;;;;;;;12.60;6.45;;;;;;;;;;5006791;28;20041;-55
2023/04/22 01:15:53;;;;;;;15.43;6.85;;;;;;;;;;5001941;28;20047;-55
2023/04/22 01:18:20;;;;;;;10.10;6.18;;;;;;;;;;5005645;28;20058;-52
2023/04/22 01:20:47;;;;;;;13.75;5.80;;;;;;;;;;5007117;28;20108;-54
2023/04/22 01:23:20;;;;;;;16.38;6.53;;;;;;;;;;5013595;28;20053;-54
2023/04/22 01:25:47;;;;;;;10.93;6.38;;;;;;;;;;5006663;28;20049;-53
2023/04/22 01:28:14;;;;;;;13.10;5.95;;;;;;;;;;5006032;28;20034;-55
2023/04/22 01:30:42;;;;;;;11.90;6.53;;;;;;;;;;5007669;28;20053;-53
2023/04/22 01:33:09;;;;;;;13.02;6.35;;;;;;;;;;5010452;28;20069;-52
2023/04/22 01:35:36;;;;;;;16.27;5.82;;;;;;;;;;5010826;28;20044;-54
2023/04/22 01:38:03;;;;;;;14.23;7.22;;;;;;;;;;5010809;28;20052;-54
2023/04/22 01:40:33;;;;;;;10.57;6.15;;;;;;;;;;5011670;28;20108;-51
2023/04/22 01:43:00;;;;;;;11.95;7.28;;;;;;;;;;5011975;28;20049;-53
2023/04/22 01:45:27;;;;;;;11.20;6.47;;;;;;;;;;5012451;28;20046;-51
2023/04/22 01:47:55;;;;;;;12.15;6.55;;;;;;;;;;5014435;28;20064;-50
2023/04/22 01:50:22;;;;;;;10.25;5.50;;;;;;;;;;5014664;28;20042;-52
2023/04/22 01:52:49;;;;;;;11.18;5.63;;;;;;;;;;5010213;28;20884;-52
2023/04/22 01:55:16;;;;;;;18.27;6.65;;;;;;;;;;5008230;28;20050;-55
2023/04/22 01:57:42;;;;;;;11.65;6.72;;;;;;;;;;5010560;28;20176;-53
2023/04/22 02:00:09;;;;;;;10.73;6.80;;;;;;;;;;5011490;28;21977;-52
2023/04/22 02:02:36;;;;;;;12.75;7.50;;;;;;;;;;5008696;28;20057;-54
2023/04/22 02:05:03;;;;;;;11.45;6.15;;;;;;;;;;5009075;28;20042;-57
2023/04/22 02:07:29;;;;;;;12.27;6.53;;;;;;;;;;5014070;28;20041;-54
2023/04/22 02:09:56;;;;;;;14.27;7.18;;;;;;;;;;5010742;28;20060;-51
2023/04/22 02:12:23;;;;;;;11.95;6.85;;;;;;;;;;5010718;28;20072;-55
2023/04/22 02:14:49;;;;;;;14.75;6.45;;;;;;;;;;5010618;28;20053;-51
2023/04/22 02:17:16;;;;;;;13.13;5.95;;;;;;;;;;5010420;28;20120;-55
2023/04/22 02:19:43;;;;;;;11.18;5.97;;;;;;;;;;5008420;28;20053;-56
2023/04/22 02:22:10;;;;;;;12.80;6.10;;;;;;;;;;5010146;28;20107;-56
2023/04/22 02:24:36;;;;;;;12.07;6.75;;;;;;;;;;5009741;28;20088;-54
2023/04/22 02:27:07;;;;;;;14.02;7.88;;;;;;;;;;5010599;28;20037;-55
2023/04/22 02:29:34;;;;;;;11.88;6.50;;;;;;;;;;5008686;28;20439;-54
2023/04/22 02:32:01;;;;;;;14.77;6.93;;;;;;;;;;5010683;28;20390;-55
2023/04/22 02:34:27;;;;;;;13.68;6.40;;;;;;;;;;5007872;28;20033;-54
2023/04/22 02:36:54;;;;;;;18.20;6.85;;;;;;;;;;5016987;28;20072;-49
2023/04/22 02:39:21;;;;;;;16.35;7.00;;;;;;;;;;5011691;28;20113;-52
2023/04/22 02:41:47;;;;;;;14.32;8.35;;;;;;;;;;5009991;28;20049;-53
2023/04/22 02:44:14;;;;;;;15.30;6.60;;;;;;;;;;5011066;28;21123;-53
2023/04/22 02:46:41;;;;;;;12.82;6.53;;;;;;;;;;5008093;28;20509;-53
2023/04/22 02:49:07;;;;;;;10.88;6.07;;;;;;;;;;5003902;28;20080;-52
2023/04/22 02:51:34;;;;;;;11.18;6.53;;;;;;;;;;5009557;28;20106;-55
2023/04/22 02:54:01;;;;;;;15.25;7.65;;;;;;;;;;5009902;28;20133;-53
2023/04/22 02:56:27;;;;;;;14.77;6.65;;;;;;;;;;5009052;28;20578;-54
2023/04/22 02:58:54;;;;;;;9.88;6.18;;;;;;;;;;5009237;28;20659;-55
2023/04/22 03:01:21;;;;;;;13.43;6.63;;;;;;;;;;5011092;28;20028;-54
2023/04/22 03:03:47;;;;;;;12.40;6.30;;;;;;;;;;5008954;28;20473;-53
2023/04/22 03:06:14;;;;;;;13.90;6.70;;;;;;;;;;5010393;28;20022;-59
2023/04/22 03:08:41;;;;;;;17.90;7.63;;;;;;;;;;5009106;28;20375;-55
2023/04/22 03:11:07;;;;;;;11.98;7.32;;;;;;;;;;5009567;28;20061;-54
2023/04/22 03:13:34;;;;;;;16.30;6.85;;;;;;;;;;5009226;28;20045;-55
2023/04/22 03:16:01;;;;;;;13.63;7.18;;;;;;;;;;5009592;28;20526;-54
2023/04/22 03:18:27;;;;;;;14.48;7.07;;;;;;;;;;5025066;28;20037;-57
2023/04/22 03:20:54;;;;;;;12.20;7.25;;;;;;;;;;5010872;28;20064;-51
2023/04/22 03:23:20;;;;;;;18.90;7.82;;;;;;;;;;5025432;28;20069;-56
2023/04/22 03:25:47;;;;;;;16.20;8.07;;;;;;;;;;5011060;28;20030;-53
2023/04/22 03:28:14;;;;;;;17.98;8.52;;;;;;;;;;5009314;28;20042;-51
2023/04/22 03:30:40;;;;;;;17.88;8.43;;;;;;;;;;5007049;28;20061;-55
2023/04/22 03:33:07;;;;;;;16.95;8.65;;;;;;;;;;5009340;28;20037;-56
2023/04/22 03:35:34;;;;;;;22.42;8.88;;;;;;;;;;5008931;28;20041;-57
2023/04/22 03:38:00;;;;;;;18.05;9.18;;;;;;;;;;5012105;28;20049;-55
2023/04/22 03:40:27;;;;;;;19.17;8.52;;;;;;;;;;5009122;28;20188;-55
2023/04/22 03:42:54;;;;;;;15.88;7.45;;;;;;;;;;5009277;28;20061;-54
2023/04/22 03:45:20;;;;;;;17.25;8.65;;;;;;;;;;5008576;28;20033;-55
2023/04/22 03:47:47;;;;;;;14.43;8.18;;;;;;;;;;5007778;28;20164;-57
2023/04/22 03:50:14;;;;;;;18.00;7.78;;;;;;;;;;5008462;28;20134;-55
2023/04/22 03:52:41;;;;;;;13.27;7.45;;;;;;;;;;5007529;28;20037;-56
2023/04/22 03:55:08;;;;;;;16.23;7.22;;;;;;;;;;5007906;28;20429;-54
2023/04/22 03:57:34;;;;;;;18.40;7.38;;;;;;;;;;5006144;28;20038;-54
2023/04/22 04:00:01;;;;;;;13.52;7.20;;;;;;;;;;5008112;28;20418;-55
2023/04/22 04:02:28;;;;;;;16.38;7.72;;;;;;;;;;5020106;28;20061;-55
2023/04/22 04:04:54;;;;;;;18.33;8.13;;;;;;;;;;5007752;28;20048;-55
2023/04/22 04:07:21;;;;;;;15.45;7.93;;;;;;;;;;5008097;28;20806;-53
2023/04/22 04:09:48;;;;;;;15.40;7.55;;;;;;;;;;5004964;28;20088;-53
2023/04/22 04:12:14;;;;;;;16.73;7.80;;;;;;;;;;5023602;28;20524;-51
2023/04/22 04:14:41;;;;;;;12.95;6.82;;;;;;;;;;5007518;28;20045;-54
2023/04/22 04:17:12;;;;;;;17.40;7.88;;;;;;;;;;5007181;28;20033;-54
2023/04/22 04:19:39;;;;;;;14.18;7.43;;;;;;;;;;5006254;28;20042;-50
2023/04/22 04:22:06;;;;;;;15.82;8.82;;;;;;;;;;5006772;28;20157;-54
2023/04/22 04:24:35;;;;;;;14.45;7.75;;;;;;;;;;5007497;28;20038;-50
2023/04/22 04:27:02;;;;;;;16.08;7.78;;;;;;;;;;5008879;28;20145;-54
2023/04/22 04:29:32;;;;;;;14.13;7.22;;;;;;;;;;5008407;28;20037;-53
2023/04/22 04:31:59;;;;;;;19.52;8.38;;;;;;;;;;5008680;28;20041;-54
2023/04/22 04:34:25;;;;;;;16.25;8.63;;;;;;;;;;5007046;28;20553;-55
2023/04/22 04:36:53;;;;;;;14.07;7.93;;;;;;;;;;5009674;28;20049;-55
2023/04/22 04:39:20;;;;;;;13.38;7.50;;;;;;;;;;5008753;28;20033;-55
2023/04/22 04:41:47;;;;;;;21.02;8.70;;;;;;;;;;5010976;28;20454;-54
2023/04/22 04:44:15;;;;;;;17.92;9.32;;;;;;;;;;5010395;28;20105;-51
2023/04/22 04:46:41;;;;;;;15.77;7.93;;;;;;;;;;5010983;28;20037;-54
2023/04/22 04:49:14;;;;;;;15.38;6.45;;;;;;;;;;5009865;28;20084;-55
2023/04/22 04:51:41;;;;;;;14.05;7.15;;;;;;;;;;5009474;28;20034;-53
2023/04/22 04:54:07;;;;;;;12.98;7.60;;;;;;;;;;5007239;28;20042;-54
2023/04/22 04:56:34;;;;;;;14.38;7.32;;;;;;;;;;5009307;28;20057;-54
2023/04/22 04:59:01;;;;;;;18.95;8.52;;;;;;;;;;5006012;28;20037;-52
2023/04/22 05:01:27;;;;;;;18.35;8.98;;;;;;;;;;5019878;28;20045;-54
2023/04/22 05:03:54;;;;;;;21.50;10.20;;;;;;;;;;5005887;28;20230;-54
2023/04/22 05:06:21;;;;;;;20.40;10.75;;;;;;;;;;5006473;28;20060;-56
2023/04/22 05:08:47;;;;;;;19.00;8.82;;;;;;;;;;5006476;28;20064;-50
2023/04/22 05:11:14;;;;;;;14.35;7.45;;;;;;;;;;5007459;28;20048;-55
2023/04/22 05:13:41;;;;;;;15.65;6.78;;;;;;;;;;5007576;28;20038;-53
2023/04/22 05:16:08;;;;;;;12.70;6.43;;;;;;;;;;5009288;28;20046;-55
2023/04/22 05:18:34;;;;;;;12.35;6.55;;;;;;;;;;5008060;28;20471;-56
2023/04/22 05:21:03;;;;;;;15.88;6.68;;;;;;;;;;5009633;28;20868;-55
2023/04/22 05:23:29;;;;;;;12.85;6.72;;;;;;;;;;5007851;28;20115;-55
2023/04/22 05:25:57;;;;;;;16.40;7.20;;;;;;;;;;5009108;28;20038;-55
2023/04/22 05:28:23;;;;;;;18.38;7.47;;;;;;;;;;5006148;28;20050;-56
2023/04/22 05:30:50;;;;;;;16.90;7.97;;;;;;;;;;5007529;28;20050;-59
2023/04/22 05:33:17;;;;;;;17.15;7.38;;;;;;;;;;5006382;28;20863;-56
2023/04/22 05:35:43;;;;;;;12.75;7.65;;;;;;;;;;5007285;28;20405;-55
2023/04/22 05:38:10;;;;;;;17.27;8.52;;;;;;;;;;5007158;28;20046;-52
2023/04/22 05:40:37;;;;;;;15.55;7.35;;;;;;;;;;5005674;28;20046;-54
2023/04/22 05:43:03;;;;;;;13.60;7.40;;;;;;;;;;5008582;28;20414;-56
2023/04/22 05:45:30;;;;;;;12.90;7.20;;;;;;;;;;5008022;28;20124;-55
2023/04/22 05:47:57;;;;;;;12.38;6.90;;;;;;;;;;5006957;28;20041;-58
2023/04/22 05:50:23;;;;;;;10.55;5.72;;;;;;;;;;5003962;28;20122;-51
2023/04/22 05:52:50;;;;;;;15.43;6.25;;;;;;;;;;5021773;28;20036;-55
2023/04/22 05:55:17;;;;;;;15.52;6.07;;;;;;;;;;5008509;28;20522;-53
2023/04/22 05:57:44;;;;;;;11.57;5.88;;;;;;;;;;5004380;28;20053;-51
2023/04/22 06:00:11;;;;;;;14.15;6.93;;;;;;;;;;5007407;28;20034;-56
2023/04/22 06:02:38;;;;;;;13.45;5.90;;;;;;;;;;5006046;28;20100;-55
2023/04/22 06:05:05;;;;;;;12.90;5.85;;;;;;;;;;5006240;28;20069;-56
2023/04/22 06:07:31;;;;;;;15.73;6.55;;;;;;;;;;5006012;28;21132;-55
2023/04/22 06:09:58;;;;;;;10.13;5.47;;;;;;;;;;5007121;28;20095;-54
2023/04/22 06:12:25;;;;;;;12.68;6.28;;;;;;;;;;5003018;28;20037;-55
2023/04/22 06:14:51;;;;;;;11.48;6.47;;;;;;;;;;5005724;28;20129;-54
2023/04/22 06:17:18;;;;;;;10.80;5.60;;;;;;;;;;5008292;28;20034;-54
2023/04/22 06:19:44;;;;;;;9.93;5.45;;;;;;;;;;5010143;28;20045;-55
2023/04/22 06:22:11;;;;;;;11.68;5.35;;;;;;;;;;5010738;28;20049;-56
2023/04/22 06:24:38;;;;;;;11.60;5.40;;;;;;;;;;5009840;28;21410;-52
2023/04/22 06:27:04;;;;;;;10.35;5.28;;;;;;;;;;5015820;28;20041;-50
2023/04/22 06:29:31;;;;;;;12.98;5.07;;;;;;;;;;5013714;28;20056;-50
2023/04/22 06:31:58;;;;;;;10.38;5.20;;;;;;;;;;5014134;28;20041;-52
2023/04/22 06:34:24;;;;;;;10.90;5.38;;;;;;;;;;5011932;28;20048;-54
2023/04/22 06:36:52;;;;;;;12.98;5.22;;;;;;;;;;5012955;28;20041;-54
2023/04/22 06:39:19;;;;;;;10.80;5.18;;;;;;;;;;5013691;28;20095;-55
2023/04/22 06:41:46;;;;;;;9.07;4.82;;;;;;;;;;5014355;28;20537;-51
2023/04/22 06:44:13;;;;;;;8.95;5.00;;;;;;;;;;5011259;28;20058;-55
2023/04/22 06:46:39;;;;;;;11.48;5.13;;;;;;;;;;5009254;28;20131;-56
2023/04/22 06:49:06;;;;;;;8.95;5.22;;;;;;;;;;5009678;28;20125;-57
2023/04/22 06:51:33;;;;;;;8.77;4.78;;;;;;;;;;5010635;28;20041;-55
2023/04/22 06:53:59;;;;;;;8.50;4.93;;;;;;;;;;5010229;28;20034;-54
2023/04/22 06:56:26;;;;;;;10.35;5.53;;;;;;;;;;5008478;28;20502;-57
2023/04/22 06:58:53;;;;;;;9.98;5.18;;;;;;;;;;5008539;28;20053;-58
2023/04/22 07:01:19;;;;;;;9.88;5.07;;;;;;;;;;5010203;28;20034;-55
2023/04/22 07:03:46;;;;;;;10.27;5.70;;;;;;;;;;5001959;28;20061;-54
2023/04/22 07:06:13;;;;;;;11.73;5.53;;;;;;;;;;5009457;28;20485;-56
2023/04/22 07:08:40;;;;;;;9.88;5.65;;;;;;;;;;5008181;28;20040;-51
2023/04/22 07:11:07;;;;;;;14.65;5.45;;;;;;;;;;5009460;28;20037;-55
2023/04/22 07:13:34;;;;;;;9.30;5.05;;;;;;;;;;5008285;28;20060;-55
2023/04/22 07:16:01;;;;;;;10.73;5.00;;;;;;;;;;5009766;28;20177;-54
2023/04/22 07:18:28;;;;;;;12.52;5.82;;;;;;;;;;5007805;28;20037;-58
2023/04/22 07:20:55;;;;;;;10.35;5.20;;;;;;;;;;5012462;28;20052;-56
2023/04/22 07:23:21;;;;;;;9.23;4.90;;;;;;;;;;5007972;28;20463;-54
2023/04/22 07:25:48;;;;;;;13.00;5.68;;;;;;;;;;5009180;28;20042;-53
2023/04/22 07:28:15;;;;;;;9.52;5.13;;;;;;;;;;5008173;28;20052;-51
2023/04/22 07:30:41;;;;;;;11.07;5.35;;;;;;;;;;5009044;28;20038;-54
2023/04/22 07:33:08;;;;;;;11.10;5.57;;;;;;;;;;5010601;28;20514;-57
2023/04/22 07:35:36;;;;;;;11.60;5.93;;;;;;;;;;5007991;28;20072;-56
2023/04/22 07:38:03;;;;;;;13.35;6.05;;;;;;;;;;5007387;28;20041;-55
2023/04/22 07:40:29;;;;;;;12.20;6.13;;;;;;;;;;5008899;28;20054;-55
2023/04/22 07:42:56;;;;;;;11.43;6.15;;;;;;;;;;5010046;28;20045;-56
2023/04/22 07:45:23;;;;;;;12.82;5.60;;;;;;;;;;5008012;28;20046;-55
2023/04/22 07:47:50;;;;;;;10.65;5.82;;;;;;;;;;5007947;28;20709;-53
2023/04/22 07:50:16;;;;;;;11.88;5.25;;;;;;;;;;5008632;28;20034;-55
2023/04/22 07:52:43;;;;;;;9.45;5.40;;;;;;;;;;5009993;28;20045;-57
2023/04/22 07:55:10;;;;;;;13.77;6.10;;;;;;;;;;5021971;28;20069;-52
2023/04/22 07:57:38;;;;;;;11.10;6.15;;;;;;;;;;5009011;28;20033;-52
2023/04/22 08:00:06;;;;;;;10.50;5.75;;;;;;;;;;5008053;28;20038;-56
2023/04/22 08:02:33;;;;;;;11.52;6.30;;;;;;;;;;5008565;28;20153;-56
2023/04/22 08:05:00;;;;;;;9.60;5.60;;;;;;;;;;5008224;28;20037;-52
2023/04/22 08:07:26;;;;;;;13.70;6.47;;;;;;;;;;5009403;28;20060;-55
2023/04/22 08:09:55;;;;;;;10.48;5.70;;;;;;;;;;5009137;28;20594;-56
2023/04/22 08:12:22;;;;;;;13.55;6.10;;;;;;;;;;5007819;28;20502;-55
2023/04/22 08:14:49;;;;;;;10.00;5.47;;;;;;;;;;5024183;28;20037;-54
2023/04/22 08:17:16;;;;;;;9.80;5.85;;;;;;;;;;5008526;28;20195;-52
2023/04/22 08:19:42;;;;;;;12.80;5.95;;;;;;;;;;5006796;28;20117;-55
2023/04/22 08:22:09;;;;;;;11.75;5.68;;;;;;;;;;5008599;28;20041;-56
2023/04/22 08:24:36;;;;;;;12.15;6.03;;;;;;;;;;5007118;28;20762;-56
2023/04/22 08:27:02;;;;;;;9.98;5.70;;;;;;;;;;5007573;28;20044;-56
2023/04/22 08:29:29;;;;;;;12.52;6.07;;;;;;;;;;5020810;28;20125;-53
2023/04/22 08:31:56;;;;;;;12.20;6.13;;;;;;;;;;5009207;28;20382;-52
2023/04/22 08:34:23;;;;;;;12.23;5.95;;;;;;;;;;5006452;28;20414;-55
2023/04/22 08:36:50;;;;;;;11.27;5.90;;;;;;;;;;5007985;28;21234;-57
2023/04/22 08:39:17;;;;;;;13.23;6.38;;;;;;;;;;5006288;28;20030;-57
2023/04/22 08:41:45;;;;;;;13.38;6.25;;;;;;;;;;5005018;28;20041;-54
2023/04/22 08:44:12;;;;;;;10.00;5.70;;;;;;;;;;5007334;28;20057;-55
2023/04/22 08:46:40;;;;;;;12.93;6.65;;;;;;;;;;5007329;28;20045;-53
2023/04/22 08:49:07;;;;;;;11.75;6.47;;;;;;;;;;5006338;28;20669;-53
2023/04/22 08:51:34;;;;;;;9.82;5.68;;;;;;;;;;5008058;28;20045;-54
2023/04/22 08:54:00;;;;;;;11.23;6.35;;;;;;;;;;5008886;28;20038;-54
2023/04/22 08:56:28;;;;;;;11.38;6.15;;;;;;;;;;5007133;28;20104;-52
2023/04/22 08:58:54;;;;;;;14.15;6.38;;;;;;;;;;5007287;28;20037;-53
2023/04/22 09:01:22;;;;;;;12.20;6.10;;;;;;;;;;5008038;28;20029;-51
2023/04/22 09:03:49;;;;;;;10.75;6.55;;;;;;;;;;5009503;28;20049;-51
2023/04/22 09:06:17;;;;;;;12.20;6.55;;;;;;;;;;5009984;28;20041;-53
2023/04/22 09:08:43;;;;;;;11.25;6.40;;;;;;;;;;5008587;28;20033;-54
2023/04/22 09:11:10;;;;;;;13.18;7.13;;;;;;;;;;5008332;28;20038;-54
2023/04/22 09:13:37;;;;;;;11.30;6.45;;;;;;;;;;5009025;28;20109;-56
2023/04/22 09:16:04;;;;;;;11.65;6.07;;;;;;;;;;5007899;28;20040;-54
2023/04/22 09:18:31;;;;;;;14.38;6.65;;;;;;;;;;4999309;28;20041;-52
2023/04/22 09:20:57;;;;;;;12.43;6.28;;;;;;;;;;5020975;28;20144;-51
2023/04/22 09:23:24;;;;;;;11.95;6.35;;;;;;;;;;5007968;28;20107;-55
2023/04/22 09:25:51;;;;;;;11.77;6.38;;;;;;;;;;5008632;28;20042;-54
2023/04/22 09:28:18;;;;;;;16.50;6.40;;;;;;;;;;5006735;28;20073;-51
2023/04/22 09:30:45;;;;;;;10.73;5.97;;;;;;;;;;5007220;28;20038;-55
2023/04/22 09:33:12;;;;;;;11.52;6.03;;;;;;;;;;5007034;28;20046;-56
2023/04/22 09:35:40;;;;;;;13.15;6.50;;;;;;;;;;5005357;28;20038;-55
2023/04/22 09:38:08;;;;;;;12.48;6.55;;;;;;;;;;5006987;28;20061;-54
2023/04/22 09:40:35;;;;;;;14.13;7.32;;;;;;;;;;5005914;28;20050;-55
2023/04/22 09:43:04;;;;;;;13.63;6.47;;;;;;;;;;5006928;28;21235;-53
2023/04/22 09:45:37;;;;;;;15.38;6.55;;;;;;;;;;5005998;28;20132;-55
2023/04/22 09:48:10;;;;;;;10.35;4.72;;;;;;;;;;5005789;28;20048;-56
2023/04/22 09:50:37;;;;;;;8.93;4.93;;;;;;;;;;5006136;28;20084;-54
2023/04/22 09:53:08;;;;;;;11.20;6.30;;;;;;;;;;5010856;28;20030;-53
2023/04/22 09:55:36;;;;;;;11.38;5.75;;;;;;;;;;5009705;28;20084;-52
2023/04/22 09:58:07;;;;;;;12.85;6.50;;;;;;;;;;5023465;28;20099;-54
2023/04/22 10:00:36;;;;;;;16.08;5.60;;;;;;;;;;5010963;28;20121;-54
2023/04/22 10:03:03;;;;;;;11.88;5.95;;;;;;;;;;5011579;28;20425;-54
2023/04/22 10:05:30;;;;;;;13.07;6.28;;;;;;;;;;5010685;28;20037;-54
2023/04/22 10:07:57;;;;;;;11.93;5.63;;;;;;;;;;5010833;28;20045;-56
2023/04/22 10:10:24;;;;;;;11.68;5.78;;;;;;;;;;5008530;28;20044;-54
2023/04/22 10:12:51;;;;;;;11.88;5.55;;;;;;;;;;5017374;28;20052;-53
2023/04/22 10:15:18;;;;;;;12.38;5.70;;;;;;;;;;5026404;28;20038;-52
2023/04/22 10:17:45;;;;;;;14.15;5.55;;;;;;;;;;5023213;28;20050;-56
2023/04/22 10:20:13;;;;;;;10.38;6.18;;;;;;;;;;5010660;28;20037;-55
2023/04/22 10:22:44;;;;;;;9.40;5.70;;;;;;;;;;5009541;28;21176;-52
2023/04/22 10:25:11;;;;;;;12.90;6.55;;;;;;;;;;5025919;28;20930;-53
2023/04/22 10:27:39;;;;;;;12.73;6.00;;;;;;;;;;5009452;28;20062;-55
2023/04/22 10:30:07;;;;;;;14.30;5.57;;;;;;;;;;5012767;28;20463;-52
2023/04/22 10:32:33;;;;;;;13.25;5.90;;;;;;;;;;5009298;28;20037;-55
2023/04/22 10:35:08;;;;;;;12.60;5.85;;;;;;;;;;5010996;28;20113;-54
2023/04/22 10:37:34;;;;;;;10.57;5.80;;;;;;;;;;5011871;28;20050;-56
2023/04/22 10:40:09;;;;;;;11.20;6.07;;;;;;;;;;5010205;28;20054;-61
2023/04/22 10:42:38;;;;;;;13.27;6.25;;;;;;;;;;5009194;28;20517;-54
2023/04/22 10:45:06;;;;;;;13.70;6.28;;;;;;;;;;5009618;28;20119;-55
2023/04/22 10:47:33;;;;;;;10.68;6.30;;;;;;;;;;5009338;28;20067;-57
2023/04/22 10:50:08;;;;;;;11.13;5.80;;;;;;;;;;5009769;28;20446;-55
2023/04/22 10:52:35;;;;;;;14.10;5.93;;;;;;;;;;5009693;28;20045;-54
2023/04/22 10:55:02;;;;;;;11.90;6.13;;;;;;;;;;5010533;28;20111;-54
2023/04/22 10:57:36;;;;;;;12.25;6.47;;;;;;;;;;5008653;28;20137;-55
2023/04/22 11:00:16;;;;;;;12.45;5.65;;;;;;;;;;5010314;28;20414;-57
2023/04/22 11:02:46;;;;;;;13.20;5.95;;;;;;;;;;5008944;28;20053;-53
2023/04/22 11:05:20;;;;;;;14.43;6.68;;;;;;;;;;5009455;28;20038;-55
2023/04/22 11:07:50;;;;;;;16.95;6.43;;;;;;;;;;5008559;28;20037;-56
2023/04/22 11:10:54;;;;;;;10.65;5.50;;;;;;;;;;5010166;28;20174;-53
2023/04/22 11:13:21;;;;;;;11.77;5.82;;;;;;;;;;4985571;28;20046;-57
2023/04/22 11:15:50;;;;;;;11.95;5.78;;;;;;;;;;4999849;28;20037;-54
2023/04/22 11:18:24;;;;;;;11.88;5.95;;;;;;;;;;5026140;28;20045;-60
2023/04/22 11:20:52;;;;;;;18.10;6.50;;;;;;;;;;5010893;28;20048;-63
2023/04/22 11:23:28;;;;;;;14.50;5.95;;;;;;;;;;5014507;28;20112;-52
2023/04/22 11:25:58;;;;;;;10.45;5.63;;;;;;;;;;5008035;28;20045;-55
2023/04/22 11:28:25;;;;;;;11.65;5.85;;;;;;;;;;5009932;28;20068;-51
2023/04/22 11:30:52;;;;;;;10.35;5.97;;;;;;;;;;5022178;28;20037;-52
2023/04/22 11:33:19;;;;;;;12.35;6.38;;;;;;;;;;5009285;28;20049;-55
2023/04/22 11:35:49;;;;;;;15.00;6.72;;;;;;;;;;5007765;28;20115;-55
2023/04/22 11:38:16;;;;;;;12.20;5.85;;;;;;;;;;5009000;28;20073;-52
2023/04/22 11:40:44;;;;;;;15.15;6.50;;;;;;;;;;5009934;28;20054;-54
2023/04/22 11:43:10;;;;;;;9.88;5.65;;;;;;;;;;5023308;28;20091;-57
2023/04/22 11:45:38;;;;;;;10.30;5.32;;;;;;;;;;5009659;28;20121;-54
2023/04/22 11:48:05;;;;;;;15.80;6.65;;;;;;;;;;5010180;28;20119;-54
2023/04/22 11:50:33;;;;;;;16.63;6.55;;;;;;;;;;5010459;28;20042;-55
2023/04/22 11:53:01;;;;;;;10.95;5.25;;;;;;;;;;5011537;28;20119;-56
2023/04/22 11:55:29;;;;;;;11.65;5.75;;;;;;;;;;5011905;28;20057;-51
2023/04/22 11:57:56;;;;;;;13.20;5.90;;;;;;;;;;5008678;28;20068;-53
2023/04/22 12:00:23;;;;;;;13.95;6.30;;;;;;;;;;5008788;28;20125;-53
2023/04/22 12:03:00;;;;;;;11.93;5.85;;;;;;;;;;5007739;28;20049;-54
2023/04/22 12:05:37;;;;;;;12.93;5.57;;;;;;;;;;5008387;28;21452;-55
2023/04/22 12:08:06;;;;;;;10.88;5.70;;;;;;;;;;5009926;28;20460;-57
2023/04/22 12:10:33;;;;;;;11.40;5.88;;;;;;;;;;5009334;28;20497;-55
2023/04/22 12:13:01;;;;;;;13.20;6.15;;;;;;;;;;5009200;28;20048;-55
2023/04/22 12:15:37;;;;;;;12.05;5.35;;;;;;;;;;5009912;28;20049;-59
2023/04/22 12:18:03;;;;;;;10.57;5.13;;;;;;;;;;5010515;28;20030;-55
2023/04/22 12:20:36;;;;;;;14.13;5.70;;;;;;;;;;5008814;28;20045;-55
2023/04/22 12:23:04;;;;;;;9.98;5.28;;;;;;;;;;5008785;28;20083;-54
2023/04/22 12:25:32;;;;;;;13.68;4.95;;;;;;;;;;5007719;28;20073;-55
2023/04/22 12:28:00;;;;;;;11.98;6.15;;;;;;;;;;5023136;28;20050;-54
2023/04/22 12:30:26;;;;;;;10.32;5.10;;;;;;;;;;5007468;28;20029;-53
2023/04/22 12:32:53;;;;;;;12.27;6.07;;;;;;;;;;5021597;28;20038;-54
2023/04/22 12:35:20;;;;;;;16.02;5.90;;;;;;;;;;5006493;28;20107;-53
2023/04/22 12:37:46;;;;;;;12.98;5.53;;;;;;;;;;5006542;28;20129;-55
2023/04/22 12:40:13;;;;;;;9.27;4.93;;;;;;;;;;5007649;28;20049;-57
2023/04/22 12:42:40;;;;;;;10.43;5.20;;;;;;;;;;5007441;28;20095;-51
2023/04/22 12:45:07;;;;;;;12.73;5.55;;;;;;;;;;5009896;28;20165;-56
2023/04/22 12:47:36;;;;;;;11.52;5.30;;;;;;;;;;5007698;28;20065;-54
2023/04/22 12:50:05;;;;;;;10.88;5.72;;;;;;;;;;5009121;28;20048;-56
2023/04/22 12:52:33;;;;;;;13.13;5.72;;;;;;;;;;5007513;28;20033;-54
2023/04/22 12:54:59;;;;;;;13.63;5.53;;;;;;;;;;5023584;28;21348;-56
2023/04/22 12:57:26;;;;;;;14.18;5.72;;;;;;;;;;5008386;28;20037;-54
2023/04/22 12:59:53;;;;;;;9.93;5.22;;;;;;;;;;5008514;28;20045;-54
2023/04/22 13:02:19;;;;;;;10.73;5.47;;;;;;;;;;5022738;28;20037;-54
2023/04/22 13:04:46;;;;;;;12.60;5.50;;;;;;;;;;5007955;28;20038;-52
2023/04/22 13:07:13;;;;;;;13.85;5.80;;;;;;;;;;5007673;28;20092;-56
2023/04/22 13:09:42;;;;;;;14.82;6.15;;;;;;;;;;5007041;28;20048;-52
2023/04/22 13:12:08;;;;;;;10.95;5.70;;;;;;;;;;5007292;28;20045;-51
2023/04/22 13:14:35;;;;;;;14.25;6.05;;;;;;;;;;5007314;28;20033;-53
2023/04/22 13:17:02;;;;;;;12.05;5.38;;;;;;;;;;5008633;28;20325;-55
2023/04/22 13:19:30;;;;;;;11.32;5.47;;;;;;;;;;5005825;28;20441;-60
2023/04/22 13:21:57;;;;;;;11.93;5.38;;;;;;;;;;5008241;28;20041;-55
2023/04/22 13:24:24;;;;;;;11.32;5.40;;;;;;;;;;5007739;28;20065;-53
2023/04/22 13:26:50;;;;;;;13.15;5.35;;;;;;;;;;5011222;28;20104;-55
2023/04/22 13:29:17;;;;;;;13.35;5.97;;;;;;;;;;5011892;28;20049;-52
2023/04/22 13:31:44;;;;;;;13.07;5.93;;;;;;;;;;5011031;28;20037;-56
2023/04/22 13:34:11;;;;;;;11.70;5.05;;;;;;;;;;5012906;28;20405;-54
2023/04/22 13:36:38;;;;;;;13.45;6.35;;;;;;;;;;5011006;28;20191;-56
2023/04/22 13:39:05;;;;;;;13.30;6.63;;;;;;;;;;5014784;28;20052;-55
2023/04/22 13:41:31;;;;;;;11.07;5.65;;;;;;;;;;5025964;28;20044;-56
2023/04/22 13:43:58;;;;;;;13.82;5.40;;;;;;;;;;5013598;28;20069;-55
2023/04/22 13:46:26;;;;;;;11.43;5.90;;;;;;;;;;5013137;28;20064;-56
2023/04/22 13:48:53;;;;;;;11.93;5.93;;;;;;;;;;5014130;28;20050;-56
2023/04/22 13:51:20;;;;;;;17.42;6.28;;;;;;;;;;5012275;28;20037;-62
2023/04/22 13:53:47;;;;;;;12.40;6.03;;;;;;;;;;5012988;28;20037;-56
2023/04/22 13:56:14;;;;;;;12.77;6.22;;;;;;;;;;5013365;28;20058;-54
2023/04/22 13:58:41;;;;;;;12.10;5.43;;;;;;;;;;5011465;28;20051;-54
2023/04/22 14:01:08;;;;;;;15.60;6.93;;;;;;;;;;5012928;28;20036;-54
2023/04/22 14:03:35;;;;;;;13.63;6.65;;;;;;;;;;5011416;28;20045;-54
2023/04/22 14:06:02;;;;;;;13.77;6.60;;;;;;;;;;5026139;28;20048;-57
2023/04/22 14:08:29;;;;;;;15.18;7.30;;;;;;;;;;5012458;28;20960;-56
2023/04/22 14:10:58;;;;;;;16.33;6.72;;;;;;;;;;5010578;28;20041;-56
2023/04/22 14:13:26;;;;;;;14.10;6.25;;;;;;;;;;5012142;28;20033;-54
2023/04/22 14:15:53;;;;;;;13.70;7.05;;;;;;;;;;5012417;28;20116;-56
2023/04/22 14:18:22;;;;;;;13.98;7.13;;;;;;;;;;5012821;28;20285;-55
2023/04/22 14:20:49;;;;;;;14.18;6.90;;;;;;;;;;5010744;28;20044;-55
2023/04/22 14:23:16;;;;;;;13.95;6.70;;;;;;;;;;4997539;28;20073;-54
2023/04/22 14:25:45;;;;;;;14.75;6.97;;;;;;;;;;5025482;28;20120;-56
2023/04/22 14:28:13;;;;;;;12.43;6.68;;;;;;;;;;5011346;28;20482;-53
2023/04/22 14:30:39;;;;;;;12.18;6.20;;;;;;;;;;5010301;28;20045;-54
2023/04/22 14:33:06;;;;;;;10.20;6.15;;;;;;;;;;5013790;28;20033;-54